sensor_id;sensor_type;location;lat;lon;timestamp;pressure;altitude;pressure_sealevel;temperature;humidity
68489;BME280;55481;48.764;8.936;2023-05-11T00:00:32;96800;;;11.1;79
68489;BME280;55481;48.764;8.936;2023-05-11T00:03:03;96800;;;11;79.5
68489;BME280;55481;48.764;8.936;2023-05-11T00:05:34;96800;;;11;79.5
68489;BME280;55481;48.764;8.936;2023-05-11T00:08:05;96790;;;11;79.5
68489;BME280;55481;48.764;8.936;2023-05-11T00:10:36;96800;;;11;79.5
68489;BME280;55481;48.764;8.936;2023-05-11T00:13:07;96790;;;11;79.5
68489;BME280;55481;48.764;8.936;2023-05-11T00:15:38;96790;;;11.1;79.5
68489;BME280;55481;48.764;8.936;2023-05-11T00:18:08;96790;;;11.1;79
68489;BME280;55481;48.764;8.936;2023-05-11T00:20:39;96790;;;11.1;79
68489;BME280;55481;48.764;8.936;2023-05-11T00:23:17;96800;;;11;79
68489;BME280;55481;48.764;8.936;2023-05-11T00:30:43;96790;;;11;79
68489;BME280;55481;48.764;8.936;2023-05-11T00:33:14;96790;;;11.1;79
68489;BME280;55481;48.764;8.936;2023-05-11T00:35:44;96790;;;11.1;79
68489;BME280;55481;48.764;8.936;2023-05-11T00:38:15;96790;;;11.2;79
68489;BME280;55481;48.764;8.936;2023-05-11T00:40:47;96790;;;11;79.5
68489;BME280;55481;48.764;8.936;2023-05-11T00:43:18;96790;;;11;79.5
68489;BME280;55481;48.764;8.936;2023-05-11T00:45:48;96780;;;11;79.5
68489;BME280;55481;48.764;8.936;2023-05-11T00:48:19;96790;;;10.9;79.5
68489;BME280;55481;48.764;8.936;2023-05-11T00:50:51;96780;;;10.8;80
68489;BME280;55481;48.764;8.936;2023-05-11T00:53:28;96780;;;10.7;80
68489;BME280;55481;48.764;8.936;2023-05-11T01:01:01;96780;;;10.7;80
68489;BME280;55481;48.764;8.936;2023-05-11T01:03:31;96780;;;10.6;80
68489;BME280;55481;48.764;8.936;2023-05-11T01:08:36;96780;;;10.8;80
68489;BME280;55481;48.764;8.936;2023-05-11T01:11:06;96780;;;10.9;79.5
68489;BME280;55481;48.764;8.936;2023-05-11T01:16:10;96780;;;10.7;80
68489;BME280;55481;48.764;8.936;2023-05-11T01:18:36;96780;;;10.8;80
68489;BME280;55481;48.764;8.936;2023-05-11T01:20:57;96780;;;10.8;79.5
68489;BME280;55481;48.764;8.936;2023-05-11T01:23:33;96780;;;10.7;80
68489;BME280;55481;48.764;8.936;2023-05-11T01:26:08;96780;;;10.8;80
68489;BME280;55481;48.764;8.936;2023-05-11T01:28:39;96780;;;10.9;79.5
68489;BME280;55481;48.764;8.936;2023-05-11T01:31:01;96770;;;10.7;79.5
68489;BME280;55481;48.764;8.936;2023-05-11T01:33:31;96770;;;10.8;80
68489;BME280;55481;48.764;8.936;2023-05-11T01:36:03;96780;;;10.9;79.5
68489;BME280;55481;48.764;8.936;2023-05-11T01:38:39;96780;;;10.7;80
68489;BME280;55481;48.764;8.936;2023-05-11T01:43:34;96780;;;10.8;79.5
68489;BME280;55481;48.764;8.936;2023-05-11T01:46:05;96780;;;10.8;79.5
68489;BME280;55481;48.764;8.936;2023-05-11T01:48:38;96780;;;10.9;79.5
68489;BME280;55481;48.764;8.936;2023-05-11T01:51:08;96780;;;10.9;79.5
68489;BME280;55481;48.764;8.936;2023-05-11T01:53:39;96780;;;10.7;80
68489;BME280;55481;48.764;8.936;2023-05-11T01:56:10;96780;;;10.6;80
68489;BME280;55481;48.764;8.936;2023-05-11T01:58:41;96780;;;10.6;80
68489;BME280;55481;48.764;8.936;2023-05-11T02:01:11;96780;;;10.5;80.5
68489;BME280;55481;48.764;8.936;2023-05-11T02:03:48;96780;;;10.7;80
68489;BME280;55481;48.764;8.936;2023-05-11T02:08:45;96780;;;10.6;80
68489;BME280;55481;48.764;8.936;2023-05-11T02:11:22;96780;;;10.6;80
68489;BME280;55481;48.764;8.936;2023-05-11T02:13:52;96780;;;10.5;80
68489;BME280;55481;48.764;8.936;2023-05-11T02:16:21;96780;;;10.6;80
68489;BME280;55481;48.764;8.936;2023-05-11T02:18:52;96780;;;10.5;80
68489;BME280;55481;48.764;8.936;2023-05-11T02:26:36;96780;;;10.4;80
68489;BME280;55481;48.764;8.936;2023-05-11T02:44:13;96780;;;10.5;80
68489;BME280;55481;48.764;8.936;2023-05-11T02:46:42;96780;;;10.5;80
68489;BME280;55481;48.764;8.936;2023-05-11T02:49:13;96780;;;10.5;80
68489;BME280;55481;48.764;8.936;2023-05-11T02:51:32;96780;;;10.6;80
68489;BME280;55481;48.764;8.936;2023-05-11T02:56:41;96780;;;10.5;80
68489;BME280;55481;48.764;8.936;2023-05-11T02:59:02;96780;;;10.5;80
68489;BME280;55481;48.764;8.936;2023-05-11T03:01:32;96780;;;10.5;80
68489;BME280;55481;48.764;8.936;2023-05-11T03:04:03;96780;;;10.4;80
68489;BME280;55481;48.764;8.936;2023-05-11T03:09:02;96770;;;10.5;80
68489;BME280;55481;48.764;8.936;2023-05-11T03:11:32;96770;;;10.5;80
68489;BME280;55481;48.764;8.936;2023-05-11T03:14:14;96770;;;10.5;80
68489;BME280;55481;48.764;8.936;2023-05-11T03:16:45;96770;;;10.5;80
68489;BME280;55481;48.764;8.936;2023-05-11T03:19:14;96770;;;10.5;80
68489;BME280;55481;48.764;8.936;2023-05-11T03:21:35;96770;;;10.5;80
68489;BME280;55481;48.764;8.936;2023-05-11T03:24:05;96770;;;10.6;80
68489;BME280;55481;48.764;8.936;2023-05-11T03:26:35;96770;;;10.5;80
68489;BME280;55481;48.764;8.936;2023-05-11T03:31:24;96760;;;10.5;80
68489;BME280;55481;48.764;8.936;2023-05-11T03:33:55;96770;;;10.5;80
68489;BME280;55481;48.764;8.936;2023-05-11T03:41:26;96760;;;10.5;80
68489;BME280;55481;48.764;8.936;2023-05-11T03:43:57;96770;;;10.6;79.5
68489;BME280;55481;48.764;8.936;2023-05-11T03:49:09;96770;;;10.7;79.5
68489;BME280;55481;48.764;8.936;2023-05-11T03:51:40;96760;;;10.7;79.5
68489;BME280;55481;48.764;8.936;2023-05-11T03:54:09;96760;;;10.7;79.5
68489;BME280;55481;48.764;8.936;2023-05-11T03:56:39;96760;;;10.5;80
68489;BME280;55481;48.764;8.936;2023-05-11T03:58:58;96760;;;10.5;80
68489;BME280;55481;48.764;8.936;2023-05-11T04:01:29;96760;;;10.4;80
68489;BME280;55481;48.764;8.936;2023-05-11T04:09:01;96750;;;10.6;80
68489;BME280;55481;48.764;8.936;2023-05-11T04:11:39;96760;;;10.5;80
68489;BME280;55481;48.764;8.936;2023-05-11T04:14:13;96750;;;10.6;80
68489;BME280;55481;48.764;8.936;2023-05-11T04:19:14;96750;;;10.5;80
68489;BME280;55481;48.764;8.936;2023-05-11T04:21:44;96760;;;10.5;80
68489;BME280;55481;48.764;8.936;2023-05-11T04:24:14;96760;;;10.5;80
68489;BME280;55481;48.764;8.936;2023-05-11T04:26:47;96750;;;10.5;80
68489;BME280;55481;48.764;8.936;2023-05-11T04:29:14;96750;;;10.6;80
68489;BME280;55481;48.764;8.936;2023-05-11T04:31:45;96750;;;10.6;80
68489;BME280;55481;48.764;8.936;2023-05-11T04:34:23;96750;;;10.4;80
68489;BME280;55481;48.764;8.936;2023-05-11T04:41:45;96760;;;10.3;80.5
68489;BME280;55481;48.764;8.936;2023-05-11T04:44:15;96760;;;10.3;80.5
68489;BME280;55481;48.764;8.936;2023-05-11T04:49:18;96760;;;10.5;80
68489;BME280;55481;48.764;8.936;2023-05-11T04:51:35;96760;;;10.6;80
68489;BME280;55481;48.764;8.936;2023-05-11T04:54:07;96760;;;10.5;80
68489;BME280;55481;48.764;8.936;2023-05-11T04:56:36;96760;;;10.5;80
68489;BME280;55481;48.764;8.936;2023-05-11T05:06:38;96760;;;10.7;80
68489;BME280;55481;48.764;8.936;2023-05-11T05:09:41;96760;;;10.8;79.5
68489;BME280;55481;48.764;8.936;2023-05-11T05:12:11;96770;;;10.7;80
68489;BME280;55481;48.764;8.936;2023-05-11T05:14:32;96760;;;10.7;79.5
68489;BME280;55481;48.764;8.936;2023-05-11T05:19:23;96760;;;10.8;80
68489;BME280;55481;48.764;8.936;2023-05-11T05:21:53;96760;;;11;79.5
68489;BME280;55481;48.764;8.936;2023-05-11T05:24:23;96770;;;11;79.5
68489;BME280;55481;48.764;8.936;2023-05-11T05:29:16;96760;;;11.1;79.5
68489;BME280;55481;48.764;8.936;2023-05-11T05:31:43;96760;;;11.1;79
68489;BME280;55481;48.764;8.936;2023-05-11T05:34:13;96770;;;11;79.5
68489;BME280;55481;48.764;8.936;2023-05-11T05:41:56;96770;;;11.2;79.5
68489;BME280;55481;48.764;8.936;2023-05-11T05:44:26;96770;;;11.3;79
68489;BME280;55481;48.764;8.936;2023-05-11T05:46:56;96780;;;11.3;79.5
68489;BME280;55481;48.764;8.936;2023-05-11T05:49:26;96780;;;11.4;79.5
68489;BME280;55481;48.764;8.936;2023-05-11T05:54:16;96770;;;11.3;79.5
68489;BME280;55481;48.764;8.936;2023-05-11T05:56:46;96770;;;11.2;80
68489;BME280;55481;48.764;8.936;2023-05-11T05:59:17;96770;;;11.3;79.5
68489;BME280;55481;48.764;8.936;2023-05-11T06:01:48;96770;;;11.5;79.5
68489;BME280;55481;48.764;8.936;2023-05-11T06:04:19;96770;;;11.6;79
68489;BME280;55481;48.764;8.936;2023-05-11T06:09:20;96770;;;11.7;79
68489;BME280;55481;48.764;8.936;2023-05-11T06:11:50;96770;;;11.7;79
68489;BME280;55481;48.764;8.936;2023-05-11T06:14:20;96770;;;11.7;79
68489;BME280;55481;48.764;8.936;2023-05-11T06:16:51;96770;;;11.6;79.5
68489;BME280;55481;48.764;8.936;2023-05-11T06:19:33;96770;;;11.6;79.5
68489;BME280;55481;48.764;8.936;2023-05-11T06:22:03;96770;;;11.8;79
68489;BME280;55481;48.764;8.936;2023-05-11T06:24:33;96770;;;11.8;79
68489;BME280;55481;48.764;8.936;2023-05-11T06:26:52;96760;;;11.8;79
68489;BME280;55481;48.764;8.936;2023-05-11T06:29:22;96770;;;11.9;79
68489;BME280;55481;48.764;8.936;2023-05-11T06:31:53;96770;;;11.8;79
68489;BME280;55481;48.764;8.936;2023-05-11T06:34:23;96770;;;11.7;79.5
68489;BME280;55481;48.764;8.936;2023-05-11T06:36:53;96770;;;11.8;79.5
68489;BME280;55481;48.764;8.936;2023-05-11T06:39:24;96760;;;11.8;79.5
68489;BME280;55481;48.764;8.936;2023-05-11T06:41:55;96770;;;11.8;79.5
68489;BME280;55481;48.764;8.936;2023-05-11T06:44:25;96760;;;12;79
68489;BME280;55481;48.764;8.936;2023-05-11T06:59:29;96770;;;11.8;79.5
68489;BME280;55481;48.764;8.936;2023-05-11T07:01:59;96760;;;12;79.5
68489;BME280;55481;48.764;8.936;2023-05-11T07:07:11;96770;;;11.7;79.5
68489;BME280;55481;48.764;8.936;2023-05-11T07:09:41;96780;;;11.7;80
68489;BME280;55481;48.764;8.936;2023-05-11T07:14:30;96780;;;11.9;79.5
68489;BME280;55481;48.764;8.936;2023-05-11T07:22:02;96780;;;11.8;79.5
68489;BME280;55481;48.764;8.936;2023-05-11T07:29:34;96780;;;11.9;79.5
68489;BME280;55481;48.764;8.936;2023-05-11T07:32:04;96790;;;12;79.5
68489;BME280;55481;48.764;8.936;2023-05-11T07:37:16;96790;;;12;79
68489;BME280;55481;48.764;8.936;2023-05-11T07:40:17;96800;;;11.8;79.5
68489;BME280;55481;48.764;8.936;2023-05-11T07:48:58;96790;;;12;80
68489;BME280;55481;48.764;8.936;2023-05-11T07:56:18;96790;;;12;80
68489;BME280;55481;48.764;8.936;2023-05-11T07:58:48;96790;;;12;80
68489;BME280;55481;48.764;8.936;2023-05-11T08:01:33;96800;;;11.7;80.5
68489;BME280;55481;48.764;8.936;2023-05-11T08:06:21;96790;;;12;79.5
68489;BME280;55481;48.764;8.936;2023-05-11T08:08:51;96790;;;12;79
68489;BME280;55481;48.764;8.936;2023-05-11T08:11:29;96790;;;12.1;79
68489;BME280;55481;48.764;8.936;2023-05-11T08:14:01;96790;;;11.9;79
68489;BME280;55481;48.764;8.936;2023-05-11T08:18:55;96800;;;11.8;79.5
68489;BME280;55481;48.764;8.936;2023-05-11T08:21:26;96800;;;11.8;79.5
68489;BME280;55481;48.764;8.936;2023-05-11T08:28:58;96790;;;12.5;78
68489;BME280;55481;48.764;8.936;2023-05-11T08:31:39;96790;;;12.6;77.5
68489;BME280;55481;48.764;8.936;2023-05-11T08:34:00;96790;;;12.3;77.5
68489;BME280;55481;48.764;8.936;2023-05-11T08:36:31;96790;;;12.1;79
68489;BME280;55481;48.764;8.936;2023-05-11T08:39:02;96790;;;12.4;78.5
68489;BME280;55481;48.764;8.936;2023-05-11T08:41:46;96790;;;12.3;78.5
68489;BME280;55481;48.764;8.936;2023-05-11T08:44:15;96790;;;12.5;78.5
68489;BME280;55481;48.764;8.936;2023-05-11T08:46:46;96790;;;12.3;78.5
68489;BME280;55481;48.764;8.936;2023-05-11T08:51:47;96790;;;12.6;78
68489;BME280;55481;48.764;8.936;2023-05-11T08:54:17;96800;;;12.4;79
68489;BME280;55481;48.764;8.936;2023-05-11T08:56:48;96790;;;12.4;78.5
68489;BME280;55481;48.764;8.936;2023-05-11T09:04:23;96790;;;12.7;78.5
68489;BME280;55481;48.764;8.936;2023-05-11T09:06:51;96790;;;12.8;78
68489;BME280;55481;48.764;8.936;2023-05-11T09:09:21;96790;;;13.1;78
68489;BME280;55481;48.764;8.936;2023-05-11T09:14:15;96790;;;13;77
68489;BME280;55481;48.764;8.936;2023-05-11T09:16:46;96790;;;12.8;77.5
68489;BME280;55481;48.764;8.936;2023-05-11T09:19:18;96790;;;12.6;78.5
68489;BME280;55481;48.764;8.936;2023-05-11T09:21:54;96790;;;13;77.5
68489;BME280;55481;48.764;8.936;2023-05-11T09:26:43;96790;;;13.3;77
68489;BME280;55481;48.764;8.936;2023-05-11T09:29:14;96790;;;13.3;77
68489;BME280;55481;48.764;8.936;2023-05-11T09:31:45;96790;;;13.2;77
68489;BME280;55481;48.764;8.936;2023-05-11T09:34:16;96790;;;13;77.5
68489;BME280;55481;48.764;8.936;2023-05-11T09:36:48;96790;;;13;77.5
68489;BME280;55481;48.764;8.936;2023-05-11T09:39:16;96790;;;13;77.5
68489;BME280;55481;48.764;8.936;2023-05-11T09:41:47;96790;;;13.1;77
68489;BME280;55481;48.764;8.936;2023-05-11T09:44:18;96790;;;13.1;77.5
68489;BME280;55481;48.764;8.936;2023-05-11T09:49:19;96790;;;12.6;78.5
68489;BME280;55481;48.764;8.936;2023-05-11T09:51:59;96790;;;12.9;78
68489;BME280;55481;48.764;8.936;2023-05-11T09:54:28;96780;;;13.3;77
68489;BME280;55481;48.764;8.936;2023-05-11T09:56:58;96790;;;13.5;76
68489;BME280;55481;48.764;8.936;2023-05-11T09:59:38;96780;;;13.5;76.5
68489;BME280;55481;48.764;8.936;2023-05-11T10:02:16;96780;;;13.5;76.5
68489;BME280;55481;48.764;8.936;2023-05-11T10:04:32;96790;;;13.2;77.5
68489;BME280;55481;48.764;8.936;2023-05-11T10:07:02;96790;;;12.7;78.5
68489;BME280;55481;48.764;8.936;2023-05-11T10:09:33;96790;;;12.6;78.5
68489;BME280;55481;48.764;8.936;2023-05-11T10:12:04;96790;;;12.9;78
68489;BME280;55481;48.764;8.936;2023-05-11T10:14:41;96780;;;13;77
68489;BME280;55481;48.764;8.936;2023-05-11T10:22:28;96790;;;12.6;77.5
68489;BME280;55481;48.764;8.936;2023-05-11T10:24:44;96780;;;12.8;77.5
68489;BME280;55481;48.764;8.936;2023-05-11T10:27:14;96780;;;12.9;77
68489;BME280;55481;48.764;8.936;2023-05-11T10:32:09;96780;;;12.9;77
68489;BME280;55481;48.764;8.936;2023-05-11T10:34:40;96780;;;12.9;77
68489;BME280;55481;48.764;8.936;2023-05-11T10:37:13;96780;;;13.3;76.5
68489;BME280;55481;48.764;8.936;2023-05-11T10:39:48;96770;;;13.5;75.5
68489;BME280;55481;48.764;8.936;2023-05-11T10:52:26;96770;;;13.5;77
68489;BME280;55481;48.764;8.936;2023-05-11T10:55:09;96770;;;13.7;76.5
68489;BME280;55481;48.764;8.936;2023-05-11T11:00:23;96760;;;13.9;75.5
68489;BME280;55481;48.764;8.936;2023-05-11T11:02:18;96760;;;13.9;75
68489;BME280;55481;48.764;8.936;2023-05-11T11:04:49;96770;;;13.6;76
68489;BME280;55481;48.764;8.936;2023-05-11T11:07:19;96770;;;13.6;76
68489;BME280;55481;48.764;8.936;2023-05-11T11:09:58;96760;;;13.7;76
68489;BME280;55481;48.764;8.936;2023-05-11T11:20:01;96750;;;14.3;75
68489;BME280;55481;48.764;8.936;2023-05-11T11:25:01;96760;;;13.5;76.5
68489;BME280;55481;48.764;8.936;2023-05-11T11:30:38;96760;;;13.8;76
68489;BME280;55481;48.764;8.936;2023-05-11T11:34:54;96750;;;14.5;74.5
68489;BME280;55481;48.764;8.936;2023-05-11T11:37:25;96750;;;14.5;75
68489;BME280;55481;48.764;8.936;2023-05-11T11:42:36;96750;;;15.1;74
68489;BME280;55481;48.764;8.936;2023-05-11T11:49:53;96750;;;15.2;74
68489;BME280;55481;48.764;8.936;2023-05-11T11:52:33;96760;;;14.7;75
68489;BME280;55481;48.764;8.936;2023-05-11T12:00:08;96750;;;14.8;75
68489;BME280;55481;48.764;8.936;2023-05-11T12:02:32;96750;;;14.4;75.5
68489;BME280;55481;48.764;8.936;2023-05-11T12:05:12;96750;;;14.4;75.5
68489;BME280;55481;48.764;8.936;2023-05-11T12:07:40;96750;;;14.9;74.5
68489;BME280;55481;48.764;8.936;2023-05-11T12:10:07;96740;;;15.2;74
68489;BME280;55481;48.764;8.936;2023-05-11T12:12:37;96740;;;15.3;74
68489;BME280;55481;48.764;8.936;2023-05-11T12:25:18;96730;;;15.7;73.5
68489;BME280;55481;48.764;8.936;2023-05-11T12:27:55;96730;;;16;73
68489;BME280;55481;48.764;8.936;2023-05-11T12:30:19;96730;;;15.9;73.5
68489;BME280;55481;48.764;8.936;2023-05-11T12:32:49;96730;;;16;73.5
68489;BME280;55481;48.764;8.936;2023-05-11T12:35:22;96720;;;16.1;73.5
68489;BME280;55481;48.764;8.936;2023-05-11T12:37:48;96730;;;16;73.5
68489;BME280;55481;48.764;8.936;2023-05-11T12:42:52;96730;;;14.8;75.5
68489;BME280;55481;48.764;8.936;2023-05-11T12:47:45;96730;;;15.2;75
68489;BME280;55481;48.764;8.936;2023-05-11T12:50:15;96720;;;15.4;75
68489;BME280;55481;48.764;8.936;2023-05-11T12:52:46;96720;;;15.4;75
68489;BME280;55481;48.764;8.936;2023-05-11T12:55:32;96720;;;15.5;74
68489;BME280;55481;48.764;8.936;2023-05-11T12:57:48;96720;;;15.5;74.5
68489;BME280;55481;48.764;8.936;2023-05-11T13:02:50;96710;;;15.7;73.5
68489;BME280;55481;48.764;8.936;2023-05-11T13:05:22;96710;;;15.5;74
68489;BME280;55481;48.764;8.936;2023-05-11T13:08:00;96700;;;15.6;74
68489;BME280;55481;48.764;8.936;2023-05-11T13:10:29;96700;;;15.6;74
68489;BME280;55481;48.764;8.936;2023-05-11T13:13:08;96690;;;15.8;74
68489;BME280;55481;48.764;8.936;2023-05-11T13:15:48;96690;;;15.9;73.5
68489;BME280;55481;48.764;8.936;2023-05-11T13:20:27;96690;;;15.8;74
68489;BME280;55481;48.764;8.936;2023-05-11T13:23:12;96690;;;15.9;74
68489;BME280;55481;48.764;8.936;2023-05-11T13:27:51;96690;;;15.8;74
68489;BME280;55481;48.764;8.936;2023-05-11T13:30:22;96690;;;15.8;74
68489;BME280;55481;48.764;8.936;2023-05-11T13:40:24;96680;;;16.2;73.5
68489;BME280;55481;48.764;8.936;2023-05-11T13:42:57;96680;;;16.5;73
68489;BME280;55481;48.764;8.936;2023-05-11T13:45:27;96680;;;16.9;72
68489;BME280;55481;48.764;8.936;2023-05-11T13:47:57;96670;;;16.8;72
68489;BME280;55481;48.764;8.936;2023-05-11T13:50:45;96670;;;16.9;71.5
68489;BME280;55481;48.764;8.936;2023-05-11T13:53:05;96670;;;17.1;71
68489;BME280;55481;48.764;8.936;2023-05-11T13:55:36;96670;;;16.6;71.5
68489;BME280;55481;48.764;8.936;2023-05-11T13:58:01;96670;;;16.8;72
68489;BME280;55481;48.764;8.936;2023-05-11T14:00:31;96660;;;17.7;70
68489;BME280;55481;48.764;8.936;2023-05-11T14:03:01;96660;;;17.7;69.5
68489;BME280;55481;48.764;8.936;2023-05-11T14:05:32;96660;;;17.1;70.5
68489;BME280;55481;48.764;8.936;2023-05-11T14:15:36;96650;;;18;68.5
68489;BME280;55481;48.764;8.936;2023-05-11T14:18:07;96650;;;18.1;69
68489;BME280;55481;48.764;8.936;2023-05-11T14:20:37;96650;;;17.6;70.5
68489;BME280;55481;48.764;8.936;2023-05-11T14:23:21;96650;;;17.9;70
68489;BME280;55481;48.764;8.936;2023-05-11T14:28:21;96650;;;17.2;71.5
68489;BME280;55481;48.764;8.936;2023-05-11T14:30:52;96650;;;16.8;72
68489;BME280;55481;48.764;8.936;2023-05-11T14:33:22;96650;;;16.4;72.5
68489;BME280;55481;48.764;8.936;2023-05-11T14:35:58;96650;;;16.1;74
68489;BME280;55481;48.764;8.936;2023-05-11T14:38:35;96650;;;16.8;72
68489;BME280;55481;48.764;8.936;2023-05-11T14:40:46;96650;;;16.7;71.5
68489;BME280;55481;48.764;8.936;2023-05-11T14:43:17;96640;;;16.7;71.5
68489;BME280;55481;48.764;8.936;2023-05-11T14:45:48;96640;;;16.7;71.5
68489;BME280;55481;48.764;8.936;2023-05-11T14:48:19;96650;;;16.5;72
68489;BME280;55481;48.764;8.936;2023-05-11T14:53:15;96650;;;16.6;72
68489;BME280;55481;48.764;8.936;2023-05-11T15:00:46;96640;;;16;72.5
68489;BME280;55481;48.764;8.936;2023-05-11T15:03:16;96640;;;16.2;72.5
68489;BME280;55481;48.764;8.936;2023-05-11T15:05:47;96640;;;16.4;72
68489;BME280;55481;48.764;8.936;2023-05-11T15:08:18;96640;;;16.4;71.5
68489;BME280;55481;48.764;8.936;2023-05-11T15:10:56;96640;;;16.2;72
68489;BME280;55481;48.764;8.936;2023-05-11T15:13:26;96640;;;16.2;72.5
68489;BME280;55481;48.764;8.936;2023-05-11T15:18:22;96640;;;16.4;72
68489;BME280;55481;48.764;8.936;2023-05-11T15:20:53;96640;;;16.5;71.5
68489;BME280;55481;48.764;8.936;2023-05-11T15:25:54;96640;;;16.3;72
68489;BME280;55481;48.764;8.936;2023-05-11T15:28:27;96640;;;16.3;72
68489;BME280;55481;48.764;8.936;2023-05-11T15:30:59;96640;;;15.8;72.5
68489;BME280;55481;48.764;8.936;2023-05-11T15:33:33;96640;;;15.4;73.5
68489;BME280;55481;48.764;8.936;2023-05-11T15:36:09;96640;;;15.6;73.5
68489;BME280;55481;48.764;8.936;2023-05-11T15:38:35;96640;;;15.9;72.5
68489;BME280;55481;48.764;8.936;2023-05-11T15:41:11;96640;;;15.7;73
68489;BME280;55481;48.764;8.936;2023-05-11T15:43:43;96640;;;16.1;72
68489;BME280;55481;48.764;8.936;2023-05-11T15:46:14;96640;;;16.3;71.5
68489;BME280;55481;48.764;8.936;2023-05-11T15:51:03;96640;;;16.1;72
68489;BME280;55481;48.764;8.936;2023-05-11T15:53:35;96640;;;16.1;72
68489;BME280;55481;48.764;8.936;2023-05-11T15:56:04;96640;;;16.2;71.5
68489;BME280;55481;48.764;8.936;2023-05-11T15:58:35;96650;;;15.9;72
68489;BME280;55481;48.764;8.936;2023-05-11T16:01:06;96650;;;15.7;72.5
68489;BME280;55481;48.764;8.936;2023-05-11T16:03:37;96650;;;15.5;73
68489;BME280;55481;48.764;8.936;2023-05-11T16:06:08;96640;;;15.6;73
68489;BME280;55481;48.764;8.936;2023-05-11T16:11:09;96640;;;15.5;72.5
68489;BME280;55481;48.764;8.936;2023-05-11T16:13:40;96640;;;15.5;72.5
68489;BME280;55481;48.764;8.936;2023-05-11T16:16:11;96640;;;15.5;72.5
68489;BME280;55481;48.764;8.936;2023-05-11T16:18:43;96640;;;15.5;72.5
68489;BME280;55481;48.764;8.936;2023-05-11T16:23:44;96630;;;15.5;72
68489;BME280;55481;48.764;8.936;2023-05-11T16:26:14;96630;;;15.4;72.5
68489;BME280;55481;48.764;8.936;2023-05-11T16:28:44;96640;;;15.3;72.5
68489;BME280;55481;48.764;8.936;2023-05-11T16:31:15;96640;;;15.1;73
68489;BME280;55481;48.764;8.936;2023-05-11T16:38:47;96640;;;14.7;73.5
68489;BME280;55481;48.764;8.936;2023-05-11T16:41:18;96640;;;14.7;73.5
68489;BME280;55481;48.764;8.936;2023-05-11T16:44:15;96640;;;14.9;73
68489;BME280;55481;48.764;8.936;2023-05-11T16:49:03;96640;;;14.6;73.5
68489;BME280;55481;48.764;8.936;2023-05-11T16:51:40;96640;;;14.5;73.5
68489;BME280;55481;48.764;8.936;2023-05-11T16:56:33;96640;;;14.4;73.5
68489;BME280;55481;48.764;8.936;2023-05-11T16:59:04;96640;;;14.3;74
68489;BME280;55481;48.764;8.936;2023-05-11T17:01:27;96640;;;14.3;74
68489;BME280;55481;48.764;8.936;2023-05-11T17:04:05;96640;;;14.3;73.5
68489;BME280;55481;48.764;8.936;2023-05-11T17:11:38;96640;;;14.2;73.5
68489;BME280;55481;48.764;8.936;2023-05-11T17:14:08;96640;;;14.2;73
68489;BME280;55481;48.764;8.936;2023-05-11T17:16:38;96640;;;14.2;73.5
68489;BME280;55481;48.764;8.936;2023-05-11T17:21:35;96640;;;14;73.5
68489;BME280;55481;48.764;8.936;2023-05-11T17:24:06;96640;;;14;73.5
68489;BME280;55481;48.764;8.936;2023-05-11T17:26:33;96650;;;14;73.5
68489;BME280;55481;48.764;8.936;2023-05-11T17:29:11;96650;;;14;73.5
68489;BME280;55481;48.764;8.936;2023-05-11T17:34:26;96650;;;13.8;74
68489;BME280;55481;48.764;8.936;2023-05-11T17:36:43;96650;;;13.7;74
68489;BME280;55481;48.764;8.936;2023-05-11T17:39:20;96650;;;13.6;74
68489;BME280;55481;48.764;8.936;2023-05-11T17:41:44;96650;;;13.5;74
68489;BME280;55481;48.764;8.936;2023-05-11T17:44:14;96650;;;13.4;74.5
68489;BME280;55481;48.764;8.936;2023-05-11T17:46:44;96650;;;13.5;74
68489;BME280;55481;48.764;8.936;2023-05-11T17:56:34;96660;;;13.3;74
68489;BME280;55481;48.764;8.936;2023-05-11T17:59:05;96660;;;13.2;74
68489;BME280;55481;48.764;8.936;2023-05-11T18:01:36;96660;;;13.2;74
68489;BME280;55481;48.764;8.936;2023-05-11T18:04:06;96660;;;13.2;74
68489;BME280;55481;48.764;8.936;2023-05-11T18:06:44;96660;;;13.2;74
68489;BME280;55481;48.764;8.936;2023-05-11T18:09:14;96660;;;13.1;74
68489;BME280;55481;48.764;8.936;2023-05-11T18:14:09;96660;;;13;74
68489;BME280;55481;48.764;8.936;2023-05-11T18:16:40;96660;;;13;73.5
68489;BME280;55481;48.764;8.936;2023-05-11T18:19:11;96660;;;13;74
68489;BME280;55481;48.764;8.936;2023-05-11T18:21:42;96660;;;12.9;74
68489;BME280;55481;48.764;8.936;2023-05-11T18:29:14;96660;;;12.7;74
68489;BME280;55481;48.764;8.936;2023-05-11T18:31:45;96670;;;12.7;74
68489;BME280;55481;48.764;8.936;2023-05-11T18:34:22;96670;;;12.7;74
68489;BME280;55481;48.764;8.936;2023-05-11T18:36:53;96670;;;12.6;74
68489;BME280;55481;48.764;8.936;2023-05-11T18:39:24;96670;;;12.6;74
68489;BME280;55481;48.764;8.936;2023-05-11T18:41:58;96670;;;12.6;74
68489;BME280;55481;48.764;8.936;2023-05-11T18:44:32;96680;;;12.6;74
68489;BME280;55481;48.764;8.936;2023-05-11T18:46:57;96680;;;12.6;74
68489;BME280;55481;48.764;8.936;2023-05-11T18:49:28;96670;;;12.5;74
68489;BME280;55481;48.764;8.936;2023-05-11T18:51:59;96680;;;12.5;74
68489;BME280;55481;48.764;8.936;2023-05-11T18:54:42;96680;;;12.4;74
68489;BME280;55481;48.764;8.936;2023-05-11T18:57:08;96670;;;12.4;74
68489;BME280;55481;48.764;8.936;2023-05-11T19:02:03;96680;;;12.3;74
68489;BME280;55481;48.764;8.936;2023-05-11T19:04:34;96690;;;12.3;74
68489;BME280;55481;48.764;8.936;2023-05-11T19:09:39;96690;;;12.1;74.5
68489;BME280;55481;48.764;8.936;2023-05-11T19:12:13;96690;;;12.1;74.5
68489;BME280;55481;48.764;8.936;2023-05-11T19:14:44;96700;;;12.1;74.5
68489;BME280;55481;48.764;8.936;2023-05-11T19:17:20;96700;;;12.1;74
68489;BME280;55481;48.764;8.936;2023-05-11T19:19:38;96700;;;12.1;74
68489;BME280;55481;48.764;8.936;2023-05-11T19:22:08;96700;;;12.1;74
68489;BME280;55481;48.764;8.936;2023-05-11T19:24:45;96700;;;12;74
68489;BME280;55481;48.764;8.936;2023-05-11T19:29:34;96710;;;12;74
68489;BME280;55481;48.764;8.936;2023-05-11T19:32:05;96710;;;12;74
68489;BME280;55481;48.764;8.936;2023-05-11T19:34:35;96710;;;11.9;74
68489;BME280;55481;48.764;8.936;2023-05-11T19:37:06;96700;;;11.8;74.5
68489;BME280;55481;48.764;8.936;2023-05-11T19:44:39;96710;;;11.8;74.5
68489;BME280;55481;48.764;8.936;2023-05-11T19:47:16;96710;;;11.8;74.5